Time;durP1;ratioP1;P1;durP2;ratioP2;P2;SDS_P1;SDS_P2;PMS_P1;PMS_P2;Temp;Humidity;BMP_temperature;BMP_pressure;BME280_temperature;BME280_humidity;BME280_pressure;Samples;Min_cycle;Max_cycle;Signal;HPM_P1;HPM_P2
2021/12/13 00:02:30;;;;;;;45.03;23.50;;;5.50;99.90;;;;;;5181223;28;20947;-51
2021/12/13 00:05:34;;;;;;;46.33;22.20;;;5.50;99.90;;;;;;5182516;28;20482;-53
2021/12/13 00:08:10;;;;;;;46.57;23.40;;;5.50;99.90;;;;;;5172975;28;20446;-51
2021/12/13 00:10:59;;;;;;;39.50;23.83;;;5.50;99.90;;;;;;5180965;28;20823;-50
2021/12/13 00:13:40;;;;;;;49.63;24.73;;;5.50;99.90;;;;;;5176070;28;20493;-52
2021/12/13 00:16:12;;;;;;;45.90;25.23;;;5.50;99.90;;;;;;5187356;28;20430;-51
2021/12/13 00:18:46;;;;;;;47.77;26.67;;;5.50;99.90;;;;;;5180435;28;20431;-51
2021/12/13 00:21:27;;;;;;;56.07;27.50;;;5.50;99.90;;;;;;5185178;28;20828;-50
2021/12/13 00:24:02;;;;;;;48.50;26.10;;;5.50;99.90;;;;;;5178850;28;20982;-53
2021/12/13 00:26:47;;;;;;;40.50;23.03;;;5.60;99.90;;;;;;5179923;28;20521;-50
2021/12/13 00:29:25;;;;;;;52.40;24.80;;;5.60;99.90;;;;;;5175846;28;20963;-49
2021/12/13 00:32:03;;;;;;;43.70;23.40;;;5.60;99.90;;;;;;5180581;28;21006;-50
2021/12/13 00:34:39;;;;;;;38.37;20.17;;;5.60;99.90;;;;;;5180250;28;20577;-50
2021/12/13 00:37:30;;;;;;;32.07;20.73;;;5.60;99.90;;;;;;5177245;28;20998;-51
2021/12/13 00:40:07;;;;;;;38.77;20.50;;;5.60;99.90;;;;;;5185507;28;20465;-53
2021/12/13 00:42:45;;;;;;;38.20;22.80;;;5.60;99.90;;;;;;5174342;28;20431;-50
2021/12/13 00:45:21;;;;;;;40.40;22.27;;;5.60;99.90;;;;;;5180792;28;20439;-51
2021/12/13 00:47:51;;;;;;;36.67;20.03;;;5.60;99.90;;;;;;5183876;28;20439;-50
2021/12/13 00:50:27;;;;;;;50.10;23.47;;;5.60;99.90;;;;;;5183321;28;20470;-51
2021/12/13 00:52:59;;;;;;;42.27;21.80;;;5.60;99.90;;;;;;5176569;28;20207;-50
2021/12/13 00:55:32;;;;;;;33.50;19.30;;;5.70;99.90;;;;;;5184068;28;20435;-52
2021/12/13 00:58:09;;;;;;;36.63;19.37;;;5.70;99.90;;;;;;5182019;28;20534;-50
2021/12/13 01:00:45;;;;;;;38.97;22.10;;;5.70;99.90;;;;;;5182824;28;20446;-49
2021/12/13 01:03:40;;;;;;;39.90;22.43;;;5.70;99.90;;;;;;5177132;28;20454;-50
2021/12/13 01:06:45;;;;;;;41.47;23.33;;;5.70;99.90;;;;;;5165055;28;20455;-51
2021/12/13 01:09:43;;;;;;;38.50;22.37;;;5.70;99.90;;;;;;5168103;28;20435;-50
2021/12/13 01:12:18;;;;;;;49.07;25.80;;;5.70;99.90;;;;;;5182408;28;20546;-50
2021/12/13 01:15:00;;;;;;;46.40;25.37;;;5.70;99.90;;;;;;5177745;28;20466;-50
2021/12/13 01:17:51;;;;;;;46.27;24.77;;;5.80;99.90;;;;;;5172982;28;20452;-49
2021/12/13 01:20:33;;;;;;;43.10;24.20;;;5.80;99.90;;;;;;5180404;28;20558;-51
2021/12/13 01:23:15;;;;;;;40.47;23.00;;;5.80;99.90;;;;;;5175370;28;20458;-51
2021/12/13 01:28:57;;;;;;;47.07;24.00;;;5.80;99.90;;;;;;5156499;28;20476;-50
2021/12/13 01:31:36;;;;;;;45.53;23.23;;;5.80;99.90;;;;;;5180408;28;20512;-51
2021/12/13 01:34:08;;;;;;;39.73;21.50;;;5.80;99.90;;;;;;5169600;28;20450;-49
2021/12/13 01:37:03;;;;;;;39.87;23.17;;;5.80;99.90;;;;;;5174034;28;20908;-51
2021/12/13 01:39:38;;;;;;;34.30;21.50;;;5.80;99.90;;;;;;5173685;28;20930;-48
2021/12/13 01:42:30;;;;;;;38.30;21.33;;;5.80;99.90;;;;;;5176746;28;20514;-51
2021/12/13 01:45:10;;;;;;;37.13;21.50;;;5.80;99.90;;;;;;5173336;28;20466;-51
2021/12/13 01:47:45;;;;;;;42.17;21.43;;;5.80;99.90;;;;;;5179322;28;20451;-49
2021/12/13 01:50:24;;;;;;;34.40;20.07;;;5.80;99.90;;;;;;5170608;28;20456;-50
2021/12/13 01:53:00;;;;;;;42.17;22.87;;;5.80;99.90;;;;;;5177136;28;21010;-51
2021/12/13 01:55:36;;;;;;;40.13;24.10;;;5.90;99.90;;;;;;5174302;28;20425;-51
2021/12/13 02:01:11;;;;;;;38.00;22.80;;;5.90;99.90;;;;;;5181151;28;20776;-51
2021/12/13 02:03:52;;;;;;;35.00;20.70;;;5.90;99.90;;;;;;5169320;28;20462;-50
2021/12/13 02:06:36;;;;;;;36.83;21.33;;;5.90;99.90;;;;;;5177855;28;20466;-50
2021/12/13 02:09:32;;;;;;;34.83;20.73;;;5.90;99.90;;;;;;5179143;28;20428;-51
2021/12/13 02:12:10;;;;;;;40.10;21.80;;;5.90;99.90;;;;;;5179760;28;20479;-50
2021/12/13 02:14:49;;;;;;;43.20;23.90;;;5.90;99.90;;;;;;5180676;28;20453;-49
2021/12/13 02:17:21;;;;;;;33.13;19.03;;;5.90;99.90;;;;;;5169025;28;20877;-49
2021/12/13 02:19:57;;;;;;;32.73;19.57;;;5.90;99.90;;;;;;5180205;28;20445;-50
2021/12/13 02:22:43;;;;;;;35.33;19.83;;;6.00;99.90;;;;;;5180011;28;20438;-50
2021/12/13 02:25:20;;;;;;;28.17;17.13;;;6.00;99.90;;;;;;5179944;28;20642;-49
2021/12/13 02:27:58;;;;;;;33.27;18.70;;;6.00;99.90;;;;;;5176832;28;20437;-50
2021/12/13 02:30:54;;;;;;;25.63;15.30;;;6.00;99.90;;;;;;5180440;28;20994;-50
2021/12/13 02:33:35;;;;;;;27.97;16.53;;;6.00;99.90;;;;;;5182731;28;20549;-50
2021/12/13 02:36:10;;;;;;;29.80;16.30;;;6.00;99.90;;;;;;5180224;28;20546;-50
2021/12/13 02:38:46;;;;;;;22.80;15.23;;;6.00;99.90;;;;;;5168132;28;20455;-49
2021/12/13 02:41:20;;;;;;;29.53;16.53;;;6.00;99.90;;;;;;5160521;28;20510;-50
2021/12/13 02:43:56;;;;;;;33.70;18.40;;;6.00;99.90;;;;;;5181566;28;20461;-50
2021/12/13 02:46:27;;;;;;;33.93;19.00;;;6.00;99.90;;;;;;5191592;28;20437;-51
2021/12/13 02:49:02;;;;;;;25.40;15.30;;;6.00;99.90;;;;;;5147241;28;20435;-51
2021/12/13 02:51:57;;;;;;;28.70;16.63;;;6.00;99.90;;;;;;5172603;28;20204;-50
2021/12/13 02:54:32;;;;;;;39.53;18.70;;;6.00;99.90;;;;;;5176779;28;20466;-50
2021/12/13 02:57:15;;;;;;;28.07;16.90;;;6.00;99.90;;;;;;5183598;28;20422;-50
2021/12/13 02:59:56;;;;;;;29.00;16.40;;;6.00;99.90;;;;;;5178089;28;21372;-49
2021/12/13 03:02:36;;;;;;;33.67;17.80;;;6.00;99.90;;;;;;5183468;28;20971;-50
2021/12/13 03:05:11;;;;;;;33.30;18.80;;;6.00;99.90;;;;;;5181785;28;20949;-50
2021/12/13 03:07:48;;;;;;;33.50;16.67;;;6.00;99.90;;;;;;5173071;28;20435;-51
2021/12/13 03:10:28;;;;;;;30.53;17.70;;;6.00;99.90;;;;;;5181689;28;20466;-51
2021/12/13 03:12:59;;;;;;;30.87;16.93;;;6.10;99.90;;;;;;5180313;28;20943;-50
2021/12/13 03:15:31;;;;;;;26.63;15.60;;;6.10;99.90;;;;;;5167628;28;20427;-50
2021/12/13 03:18:15;;;;;;;26.47;16.03;;;6.10;99.90;;;;;;5179590;28;20180;-49
2021/12/13 03:21:08;;;;;;;27.50;15.43;;;6.10;99.90;;;;;;5190351;28;20437;-49
2021/12/13 03:24:08;;;;;;;32.83;17.63;;;6.10;99.90;;;;;;5186215;28;21030;-50
2021/12/13 03:27:13;;;;;;;25.30;15.23;;;6.10;99.90;;;;;;5185884;28;20517;-49
2021/12/13 03:30:11;;;;;;;24.50;15.30;;;6.10;99.90;;;;;;5165383;28;20518;-50
2021/12/13 03:33:04;;;;;;;27.30;16.27;;;6.10;99.90;;;;;;5174846;28;20475;-50
2021/12/13 03:35:52;;;;;;;27.00;14.87;;;6.10;99.90;;;;;;5182170;28;20511;-51
2021/12/13 03:38:29;;;;;;;26.87;15.30;;;6.10;99.90;;;;;;5183186;28;20808;-50
2021/12/13 03:41:04;;;;;;;28.67;15.53;;;6.10;99.90;;;;;;5178644;28;20534;-51
2021/12/13 03:43:40;;;;;;;31.97;15.90;;;6.10;99.90;;;;;;5189404;28;20493;-50
2021/12/13 03:46:15;;;;;;;32.73;15.87;;;6.10;99.90;;;;;;5186424;28;20442;-50
2021/12/13 03:48:48;;;;;;;31.67;15.43;;;6.10;99.90;;;;;;5181907;28;20442;-52
2021/12/13 03:51:23;;;;;;;36.20;16.43;;;6.10;99.90;;;;;;5189454;28;20558;-49
2021/12/13 03:53:57;;;;;;;25.10;14.07;;;6.20;99.90;;;;;;5178294;28;20472;-50
2021/12/13 03:56:49;;;;;;;35.73;17.23;;;6.20;99.90;;;;;;5184692;28;20423;-50
2021/12/13 03:59:23;;;;;;;32.00;16.83;;;6.20;99.90;;;;;;5172090;28;21068;-50
2021/12/13 04:01:59;;;;;;;29.70;15.00;;;6.20;99.90;;;;;;5188186;28;20446;-51
2021/12/13 04:04:39;;;;;;;30.77;16.10;;;6.20;99.90;;;;;;5179103;28;21296;-49
2021/12/13 04:07:17;;;;;;;27.97;14.97;;;6.20;99.90;;;;;;5180831;28;20438;-49
2021/12/13 04:09:55;;;;;;;29.00;14.83;;;6.20;99.90;;;;;;5180228;28;20447;-52
2021/12/13 04:12:41;;;;;;;33.10;15.80;;;6.20;99.90;;;;;;5182134;28;20968;-51
2021/12/13 04:16:07;;;;;;;26.80;15.43;;;6.20;99.90;;;;;;5178568;28;20526;-50
2021/12/13 04:21:33;;;;;;;37.63;18.37;;;6.20;99.90;;;;;;5182339;28;20526;-51
2021/12/13 04:24:10;;;;;;;33.87;16.10;;;6.20;99.90;;;;;;5180899;28;20506;-49
2021/12/13 04:26:45;;;;;;;26.93;14.90;;;6.20;99.90;;;;;;5184823;28;20508;-50
2021/12/13 04:29:35;;;;;;;35.13;17.17;;;6.20;99.90;;;;;;5172811;28;20443;-50
2021/12/13 04:32:15;;;;;;;31.73;16.23;;;6.20;99.90;;;;;;5190134;28;20549;-48
2021/12/13 04:34:46;;;;;;;36.80;18.00;;;6.20;99.90;;;;;;5183344;28;20451;-50
2021/12/13 04:37:21;;;;;;;33.53;16.20;;;6.20;99.90;;;;;;5173169;28;20427;-49
2021/12/13 04:39:59;;;;;;;26.60;15.00;;;6.20;99.90;;;;;;5174384;28;20478;-50
2021/12/13 04:42:30;;;;;;;34.57;15.63;;;6.20;99.90;;;;;;5183394;28;20427;-50
2021/12/13 04:45:05;;;;;;;46.40;18.87;;;6.20;99.90;;;;;;5187993;28;20508;-51
2021/12/13 04:47:52;;;;;;;32.70;17.00;;;6.20;99.90;;;;;;5179385;28;20522;-52
2021/12/13 04:50:28;;;;;;;39.63;17.23;;;6.20;99.90;;;;;;5185271;28;20459;-51
2021/12/13 04:53:00;;;;;;;33.93;17.33;;;6.20;99.90;;;;;;5177929;28;20446;-50
2021/12/13 04:55:37;;;;;;;26.97;14.90;;;6.30;99.90;;;;;;5183381;28;20442;-51
2021/12/13 04:58:11;;;;;;;37.23;15.20;;;6.30;99.90;;;;;;5178534;28;20463;-50
2021/12/13 05:00:47;;;;;;;33.97;17.23;;;6.30;99.90;;;;;;5176679;28;20439;-50
2021/12/13 05:03:21;;;;;;;36.20;16.80;;;6.20;99.90;;;;;;5177512;28;20586;-50
2021/12/13 05:05:52;;;;;;;32.80;15.73;;;6.20;99.90;;;;;;5177479;28;20443;-50
2021/12/13 05:08:23;;;;;;;40.60;17.10;;;6.30;99.90;;;;;;5176976;28;20450;-49
2021/12/13 05:10:54;;;;;;;30.73;15.63;;;6.20;99.90;;;;;;5183188;28;20203;-51
2021/12/13 05:13:29;;;;;;;31.20;15.70;;;6.30;99.90;;;;;;5170733;28;20458;-48
2021/12/13 05:16:09;;;;;;;37.23;16.97;;;6.30;99.90;;;;;;5182404;28;20279;-51
2021/12/13 05:18:52;;;;;;;46.60;16.50;;;6.30;99.90;;;;;;5172132;28;20526;-50
2021/12/13 05:21:27;;;;;;;35.33;14.53;;;6.30;99.90;;;;;;5179811;28;20486;-50
2021/12/13 05:24:01;;;;;;;32.07;14.13;;;6.30;99.90;;;;;;5192274;28;20465;-50
2021/12/13 05:26:56;;;;;;;40.63;16.77;;;6.30;99.90;;;;;;5177503;28;20948;-50
2021/12/13 05:29:32;;;;;;;32.93;15.53;;;6.30;99.90;;;;;;5189703;28;20463;-49
2021/12/13 05:32:22;;;;;;;36.67;15.20;;;6.30;99.90;;;;;;5187497;28;20462;-50
2021/12/13 05:35:02;;;;;;;36.33;15.10;;;6.20;99.90;;;;;;5179135;28;20455;-50
2021/12/13 05:37:49;;;;;;;31.03;14.27;;;6.30;99.90;;;;;;5179619;28;20434;-51
2021/12/13 05:40:42;;;;;;;42.93;16.33;;;6.30;99.90;;;;;;5169481;28;20595;-51
2021/12/13 05:43:23;;;;;;;30.30;14.53;;;6.30;99.90;;;;;;5177644;28;20553;-50
2021/12/13 05:46:08;;;;;;;39.93;16.50;;;6.30;99.90;;;;;;5164856;28;20454;-50
2021/12/13 05:48:52;;;;;;;39.00;14.90;;;6.30;99.90;;;;;;5169796;28;20795;-51
2021/12/13 05:51:25;;;;;;;40.23;16.70;;;6.30;99.90;;;;;;5167459;28;20532;-51
2021/12/13 05:54:17;;;;;;;35.80;14.60;;;6.20;99.90;;;;;;5173189;28;20475;-49
2021/12/13 05:57:04;;;;;;;40.87;16.77;;;6.30;99.90;;;;;;5165621;28;20427;-51
2021/12/13 05:59:39;;;;;;;44.93;16.40;;;6.30;99.90;;;;;;5171770;28;20435;-51
2021/12/13 06:02:30;;;;;;;62.77;19.90;;;6.30;99.90;;;;;;5172704;28;20482;-50
2021/12/13 06:05:28;;;;;;;64.60;19.93;;;6.30;99.90;;;;;;5173669;28;20887;-50
2021/12/13 06:08:03;;;;;;;69.03;18.80;;;6.30;99.90;;;;;;5172472;28;20439;-50
2021/12/13 06:10:58;;;;;;;44.83;16.30;;;6.30;99.90;;;;;;5173059;28;20470;-50
2021/12/13 06:13:52;;;;;;;40.37;15.43;;;6.30;99.90;;;;;;5155163;28;20537;-51
2021/12/13 06:16:36;;;;;;;38.53;14.33;;;6.30;99.90;;;;;;5169158;28;20471;-49
2021/12/13 06:19:28;;;;;;;41.27;14.87;;;6.30;99.90;;;;;;5166626;28;20423;-49
2021/12/13 06:22:04;;;;;;;35.20;15.00;;;6.30;99.90;;;;;;5174259;28;20432;-52
2021/12/13 06:24:45;;;;;;;32.97;14.93;;;6.40;99.90;;;;;;5171677;28;20461;-48
2021/12/13 06:27:23;;;;;;;49.83;18.33;;;6.30;99.90;;;;;;5154738;28;20457;-51
2021/12/13 06:30:05;;;;;;;49.73;18.53;;;6.30;99.90;;;;;;5170683;28;20956;-49
2021/12/13 06:33:08;;;;;;;68.17;19.07;;;6.40;99.90;;;;;;5172490;28;20955;-50
2021/12/13 06:35:46;;;;;;;46.13;17.77;;;6.50;99.90;;;;;;5168245;28;20512;-51
2021/12/13 06:38:19;;;;;;;50.67;17.67;;;6.40;99.90;;;;;;5168833;28;20795;-51
2021/12/13 06:40:58;;;;;;;52.93;16.17;;;6.40;99.90;;;;;;5171143;28;20446;-50
2021/12/13 06:43:40;;;;;;;57.57;17.67;;;6.40;99.90;;;;;;5161606;28;20459;-52
2021/12/13 06:46:21;;;;;;;49.27;15.67;;;6.40;99.90;;;;;;5175271;28;20953;-50
2021/12/13 06:49:10;;;;;;;43.10;15.27;;;6.50;99.90;;;;;;5173849;28;20478;-49
2021/12/13 06:51:58;;;;;;;59.33;18.60;;;6.50;99.90;;;;;;5175194;28;20474;-50
2021/12/13 06:54:46;;;;;;;46.77;16.67;;;6.50;99.90;;;;;;5171048;28;20477;-50
2021/12/13 06:57:23;;;;;;;41.73;16.30;;;6.50;99.90;;;;;;5177725;28;20435;-50
2021/12/13 07:00:26;;;;;;;47.17;16.90;;;6.50;99.90;;;;;;5175096;28;21439;-51
2021/12/13 07:03:00;;;;;;;37.97;14.57;;;6.50;99.90;;;;;;5173340;28;20435;-50
2021/12/13 07:05:40;;;;;;;40.77;15.77;;;6.50;99.90;;;;;;5172024;28;20470;-51
2021/12/13 07:08:19;;;;;;;49.57;16.37;;;6.50;99.90;;;;;;5171826;28;20436;-50
2021/12/13 07:10:56;;;;;;;36.27;15.60;;;6.50;99.90;;;;;;5178120;28;20474;-50
2021/12/13 07:14:00;;;;;;;47.43;17.63;;;6.50;99.90;;;;;;5178488;28;20528;-51
2021/12/13 07:16:38;;;;;;;35.70;14.53;;;6.50;99.90;;;;;;5174449;28;20960;-49
2021/12/13 07:19:19;;;;;;;36.50;15.83;;;6.50;99.90;;;;;;5180506;28;20436;-49
2021/12/13 07:21:54;;;;;;;66.70;20.83;;;6.50;99.90;;;;;;5174797;28;20446;-50
2021/12/13 07:24:42;;;;;;;54.07;17.13;;;6.50;99.90;;;;;;5174906;28;20558;-49
2021/12/13 07:27:17;;;;;;;45.50;16.13;;;6.50;99.90;;;;;;5178545;28;21123;-49
2021/12/13 07:29:56;;;;;;;39.77;14.43;;;6.50;99.90;;;;;;5172448;28;20450;-51
2021/12/13 07:32:40;;;;;;;48.07;15.57;;;6.60;99.90;;;;;;5169617;28;20438;-51
2021/12/13 07:35:21;;;;;;;66.60;19.00;;;6.50;99.90;;;;;;5173454;28;20449;-50
2021/12/13 07:37:56;;;;;;;68.00;20.10;;;6.50;99.90;;;;;;5179979;28;20438;-51
2021/12/13 07:40:27;;;;;;;49.40;14.83;;;6.50;99.90;;;;;;5171258;28;20474;-50
2021/12/13 07:43:13;;;;;;;50.80;16.90;;;6.60;99.90;;;;;;5176187;28;20590;-52
2021/12/13 07:45:46;;;;;;;39.30;15.77;;;6.60;99.90;;;;;;5178900;28;20212;-51
2021/12/13 07:48:23;;;;;;;54.67;17.57;;;6.60;99.90;;;;;;5175569;28;20945;-51
2021/12/13 07:51:10;;;;;;;65.63;17.53;;;6.60;99.90;;;;;;5175826;28;20566;-51
2021/12/13 07:54:01;;;;;;;36.40;15.63;;;6.60;99.90;;;;;;5177788;28;20865;-51
2021/12/13 07:56:31;;;;;;;47.70;16.50;;;6.70;99.90;;;;;;5174033;28;20434;-51
2021/12/13 07:59:09;;;;;;;45.30;16.47;;;6.70;99.90;;;;;;5173564;28;20440;-50
2021/12/13 08:01:48;;;;;;;47.07;16.93;;;6.70;99.90;;;;;;5167945;28;20594;-51
2021/12/13 08:04:22;;;;;;;41.70;16.53;;;6.70;99.90;;;;;;5175255;28;20454;-52
2021/12/13 08:07:00;;;;;;;40.83;15.40;;;6.70;99.90;;;;;;5175580;28;20470;-52
2021/12/13 08:09:31;;;;;;;37.27;14.07;;;6.80;99.90;;;;;;5174618;28;20450;-53
2021/12/13 08:12:22;;;;;;;40.13;15.43;;;6.80;99.90;;;;;;5175681;28;20582;-51
2021/12/13 08:15:06;;;;;;;51.70;17.73;;;6.80;99.90;;;;;;5172923;28;21051;-51
2021/12/13 08:17:48;;;;;;;47.13;16.90;;;6.80;99.90;;;;;;5172770;28;20440;-51
2021/12/13 08:20:47;;;;;;;49.63;19.17;;;6.80;99.90;;;;;;5156364;28;20454;-51
2021/12/13 08:23:22;;;;;;;42.17;17.27;;;6.90;99.90;;;;;;5184567;28;20495;-51
2021/12/13 08:25:57;;;;;;;37.83;14.80;;;6.90;99.90;;;;;;5173673;28;20481;-51
2021/12/13 08:28:53;;;;;;;40.60;16.37;;;6.90;99.90;;;;;;5173302;28;20439;-50
2021/12/13 08:31:36;;;;;;;31.70;15.00;;;7.00;99.90;;;;;;5174196;28;20533;-50
2021/12/13 08:34:12;;;;;;;43.87;17.37;;;7.00;99.90;;;;;;5173764;28;20507;-50
2021/12/13 08:36:48;;;;;;;38.47;17.80;;;7.10;99.90;;;;;;5178563;28;20500;-50
2021/12/13 08:39:31;;;;;;;37.67;15.30;;;7.10;99.90;;;;;;5167553;28;20583;-51
2021/12/13 08:42:11;;;;;;;31.00;15.10;;;7.10;99.90;;;;;;5175113;28;20442;-50
2021/12/13 08:44:56;;;;;;;40.60;19.07;;;7.20;99.90;;;;;;5171897;28;21020;-50
2021/12/13 08:47:52;;;;;;;39.80;16.10;;;7.20;99.90;;;;;;5178801;28;21004;-52
2021/12/13 08:50:36;;;;;;;30.50;15.60;;;7.30;99.90;;;;;;5184016;28;20466;-50
2021/12/13 08:53:21;;;;;;;25.10;13.10;;;7.30;99.90;;;;;;5174785;28;20475;-50
2021/12/13 08:55:56;;;;;;;35.77;14.70;;;7.40;99.90;;;;;;5173492;28;20531;-53
2021/12/13 08:58:27;;;;;;;32.77;15.53;;;7.40;99.90;;;;;;5179476;28;20419;-53
2021/12/13 09:00:59;;;;;;;38.83;15.60;;;7.50;99.90;;;;;;5180444;28;20441;-50
2021/12/13 09:03:33;;;;;;;24.67;12.80;;;7.50;99.90;;;;;;5189604;28;20295;-52
2021/12/13 09:06:16;;;;;;;33.80;14.03;;;7.60;99.90;;;;;;5175037;28;20477;-53
2021/12/13 09:08:55;;;;;;;26.53;12.90;;;7.60;99.90;;;;;;5172987;28;20439;-53
2021/12/13 09:11:32;;;;;;;36.23;14.87;;;7.60;99.90;;;;;;5175964;28;20473;-54
2021/12/13 09:14:20;;;;;;;34.47;14.57;;;7.70;99.90;;;;;;5181069;28;21036;-52
2021/12/13 09:17:11;;;;;;;31.73;15.10;;;7.80;99.90;;;;;;5175843;28;20438;-50
2021/12/13 09:19:50;;;;;;;29.97;14.90;;;7.80;99.90;;;;;;5189314;28;20463;-54
2021/12/13 09:22:33;;;;;;;29.63;13.10;;;7.80;99.90;;;;;;5176678;28;20536;-50
2021/12/13 09:25:10;;;;;;;24.00;12.80;;;7.90;99.90;;;;;;5167703;28;20826;-50
2021/12/13 09:27:54;;;;;;;32.90;14.93;;;8.00;99.90;;;;;;5175251;28;20442;-52
2021/12/13 09:30:43;;;;;;;26.83;12.90;;;8.00;99.90;;;;;;5191239;28;20582;-52
2021/12/13 09:33:24;;;;;;;36.00;14.27;;;8.00;99.90;;;;;;5173776;28;20455;-52
2021/12/13 09:35:57;;;;;;;27.67;13.50;;;8.10;99.90;;;;;;5176750;28;21001;-50
2021/12/13 09:38:42;;;;;;;29.07;12.10;;;8.10;99.90;;;;;;5175653;28;20428;-51
2021/12/13 09:41:27;;;;;;;23.40;12.20;;;8.10;99.90;;;;;;5163115;28;20443;-50
2021/12/13 09:44:29;;;;;;;21.43;10.53;;;8.10;99.90;;;;;;5172633;28;20510;-50
2021/12/13 09:47:07;;;;;;;20.70;11.13;;;8.10;99.90;;;;;;5175232;28;20517;-51
2021/12/13 09:49:47;;;;;;;24.03;11.23;;;8.20;99.90;;;;;;5174361;28;20439;-51
2021/12/13 09:52:32;;;;;;;21.77;11.33;;;8.10;99.90;;;;;;5177467;28;20482;-50
2021/12/13 09:55:24;;;;;;;24.83;13.23;;;8.20;99.90;;;;;;5189470;28;20533;-50
2021/12/13 09:58:03;;;;;;;16.57;9.80;;;8.10;99.90;;;;;;5174852;28;20451;-50
2021/12/13 10:00:50;;;;;;;24.33;11.93;;;8.10;99.90;;;;;;5174019;28;20504;-51
2021/12/13 10:03:43;;;;;;;22.57;11.90;;;8.20;99.90;;;;;;5172393;28;20525;-52
2021/12/13 10:06:17;;;;;;;25.50;12.37;;;8.20;99.90;;;;;;5175737;28;20584;-52
2021/12/13 10:09:02;;;;;;;16.73;10.00;;;8.20;99.90;;;;;;5167057;28;20506;-53
2021/12/13 10:11:56;;;;;;;17.53;9.43;;;8.20;99.90;;;;;;5173027;28;21482;-50
2021/12/13 10:14:32;;;;;;;17.40;10.77;;;8.20;99.90;;;;;;5132762;28;20463;-51
2021/12/13 10:17:06;;;;;;;14.37;9.40;;;8.20;99.90;;;;;;5170530;28;20439;-51
2021/12/13 10:19:43;;;;;;;20.50;10.73;;;8.20;99.90;;;;;;5169130;28;21213;-51
2021/12/13 10:22:17;;;;;;;15.07;9.97;;;8.20;99.90;;;;;;5169481;28;20434;-51
2021/12/13 10:24:52;;;;;;;16.97;9.33;;;8.20;99.90;;;;;;5172309;28;20457;-50
2021/12/13 10:27:24;;;;;;;21.83;10.80;;;8.30;99.90;;;;;;5174021;28;20484;-52
2021/12/13 10:29:58;;;;;;;16.47;9.53;;;8.30;99.90;;;;;;5170344;28;21242;-49
2021/12/13 10:32:33;;;;;;;13.20;8.27;;;8.30;99.90;;;;;;5168315;28;20493;-50
2021/12/13 10:35:15;;;;;;;16.67;9.97;;;8.40;99.90;;;;;;5168589;28;20443;-51
2021/12/13 10:37:54;;;;;;;25.00;9.33;;;8.30;99.90;;;;;;5178479;28;20428;-53
2021/12/13 10:40:38;;;;;;;21.87;10.30;;;8.30;99.90;;;;;;5175894;28;20573;-51
2021/12/13 10:43:21;;;;;;;26.27;12.13;;;8.40;99.90;;;;;;5170913;28;20522;-53
2021/12/13 10:45:58;;;;;;;23.50;10.67;;;8.30;99.90;;;;;;5174814;28;20506;-52
2021/12/13 10:48:32;;;;;;;17.50;10.70;;;8.40;99.90;;;;;;5172702;28;20447;-49
2021/12/13 10:51:10;;;;;;;20.40;11.20;;;8.40;99.90;;;;;;5172124;28;20485;-50
2021/12/13 10:53:42;;;;;;;20.73;11.20;;;8.50;99.90;;;;;;5166809;28;20473;-51
2021/12/13 10:56:31;;;;;;;18.97;10.90;;;8.50;99.90;;;;;;5172856;28;20468;-50
2021/12/13 10:59:16;;;;;;;16.30;10.20;;;8.50;99.90;;;;;;5176708;28;20439;-49
2021/12/13 11:01:51;;;;;;;18.70;10.00;;;8.50;99.90;;;;;;5172602;28;20438;-53
2021/12/13 11:04:26;;;;;;;17.63;10.83;;;8.60;99.90;;;;;;5166022;28;20644;-51
2021/12/13 11:06:57;;;;;;;29.83;10.63;;;8.60;99.90;;;;;;5172613;28;20964;-52
2021/12/13 11:09:27;;;;;;;25.60;12.10;;;8.70;99.90;;;;;;5164506;28;20454;-48
2021/12/13 11:12:07;;;;;;;24.03;10.33;;;8.70;99.90;;;;;;5172504;28;20274;-50
2021/12/13 11:14:41;;;;;;;24.07;14.70;;;8.70;99.90;;;;;;5178872;28;20192;-51
2021/12/13 11:17:18;;;;;;;29.57;14.50;;;8.70;99.90;;;;;;5174423;28;20477;-50
2021/12/13 11:19:58;;;;;;;21.80;12.63;;;8.80;99.90;;;;;;5174490;28;20435;-50
2021/12/13 11:22:31;;;;;;;21.40;11.93;;;8.80;99.90;;;;;;5186094;28;20505;-50
2021/12/13 11:25:18;;;;;;;24.13;12.60;;;8.80;99.90;;;;;;5181130;28;20525;-49
2021/12/13 11:27:49;;;;;;;22.93;12.07;;;8.80;99.90;;;;;;5179929;28;20589;-51
2021/12/13 11:30:27;;;;;;;28.37;12.97;;;8.80;99.90;;;;;;5183300;28;20902;-50
2021/12/13 11:32:58;;;;;;;28.73;13.20;;;8.70;99.90;;;;;;5183220;28;20431;-51
2021/12/13 11:36:10;;;;;;;27.20;12.97;;;8.80;99.90;;;;;;5185259;28;20548;-49
2021/12/13 11:39:00;;;;;;;27.33;14.23;;;8.90;99.90;;;;;;5173690;28;20197;-50
2021/12/13 11:41:35;;;;;;;23.80;11.90;;;8.80;99.90;;;;;;5180209;28;20431;-50
2021/12/13 11:44:43;;;;;;;22.53;12.07;;;8.80;99.90;;;;;;5189408;28;20511;-51
2021/12/13 11:47:50;;;;;;;22.60;11.37;;;8.90;99.90;;;;;;5173076;28;20489;-50
2021/12/13 11:50:43;;;;;;;20.23;10.90;;;9.00;99.90;;;;;;5179151;28;20590;-52
2021/12/13 11:53:33;;;;;;;36.50;12.20;;;9.00;99.90;;;;;;5173310;28;20477;-51
2021/12/13 11:56:39;;;;;;;23.57;12.80;;;9.10;99.90;;;;;;5177341;28;20760;-51
2021/12/13 11:59:51;;;;;;;22.90;13.63;;;9.10;99.90;;;;;;5170361;28;20471;-51
2021/12/13 12:02:58;;;;;;;28.40;14.50;;;9.00;99.90;;;;;;5170406;28;20448;-54
2021/12/13 12:06:19;;;;;;;20.53;12.60;;;8.90;99.90;;;;;;5189815;28;20466;-51
2021/12/13 12:09:40;;;;;;;20.77;12.73;;;9.00;99.90;;;;;;5171393;28;20445;-54
2021/12/13 12:12:49;;;;;;;21.10;11.97;;;8.90;99.90;;;;;;5176610;28;20513;-53
2021/12/13 12:15:22;;;;;;;16.70;11.40;;;9.00;99.90;;;;;;5183328;28;20431;-54
2021/12/13 12:17:55;;;;;;;20.20;12.13;;;9.00;99.90;;;;;;5182045;28;20438;-53
2021/12/13 12:20:38;;;;;;;19.60;12.30;;;9.10;99.90;;;;;;5174515;28;20535;-50
2021/12/13 12:23:24;;;;;;;18.30;12.17;;;9.10;99.90;;;;;;5176728;28;20967;-52
2021/12/13 12:25:58;;;;;;;22.17;12.60;;;9.20;99.90;;;;;;5173433;28;20447;-52
2021/12/13 12:28:31;;;;;;;20.63;12.57;;;9.20;99.90;;;;;;5180133;28;21441;-50
2021/12/13 12:31:02;;;;;;;19.00;12.30;;;9.30;99.90;;;;;;5171805;28;20815;-51
2021/12/13 12:33:37;;;;;;;13.53;9.87;;;9.20;99.90;;;;;;5174455;28;20521;-51
2021/12/13 12:36:21;;;;;;;19.90;12.93;;;9.10;99.90;;;;;;5177444;28;20441;-54
2021/12/13 12:39:04;;;;;;;20.00;13.30;;;9.10;99.90;;;;;;5177126;28;20463;-52
2021/12/13 12:42:01;;;;;;;22.37;13.30;;;9.00;99.90;;;;;;5175235;28;20974;-52
2021/12/13 12:44:57;;;;;;;24.60;13.10;;;9.00;99.90;;;;;;5172149;28;20994;-52
2021/12/13 12:47:57;;;;;;;26.03;14.80;;;8.90;99.90;;;;;;5178449;28;20534;-50
2021/12/13 12:50:35;;;;;;;27.27;13.57;;;8.90;99.90;;;;;;5170974;28;20499;-50
2021/12/13 12:53:12;;;;;;;22.10;12.47;;;8.90;99.90;;;;;;5166092;28;20467;-51
2021/12/13 12:56:00;;;;;;;24.63;12.30;;;8.90;99.90;;;;;;5166041;28;20435;-51
2021/12/13 12:58:38;;;;;;;20.30;12.77;;;8.90;99.90;;;;;;5174924;28;20962;-50
2021/12/13 13:01:20;;;;;;;18.30;11.60;;;9.00;99.90;;;;;;5176659;28;20435;-50
2021/12/13 13:03:52;;;;;;;15.83;11.00;;;9.00;99.90;;;;;;5174481;28;20460;-54
2021/12/13 13:06:24;;;;;;;21.67;13.17;;;9.00;99.90;;;;;;5175777;28;20439;-54
2021/12/13 13:08:55;;;;;;;24.87;13.93;;;8.90;99.90;;;;;;5168871;28;20531;-50
2021/12/13 13:11:34;;;;;;;23.67;11.93;;;9.00;99.90;;;;;;5175424;28;20470;-52
2021/12/13 13:14:16;;;;;;;19.90;11.87;;;9.00;99.90;;;;;;5173701;28;20458;-51
2021/12/13 13:16:51;;;;;;;15.10;10.37;;;9.00;99.90;;;;;;5173893;28;20443;-52
2021/12/13 13:19:25;;;;;;;19.80;11.70;;;9.00;99.90;;;;;;5170629;28;20489;-51
2021/12/13 13:22:06;;;;;;;20.23;12.50;;;9.00;99.90;;;;;;5169677;28;20444;-52
2021/12/13 13:24:46;;;;;;;20.30;11.43;;;9.00;99.90;;;;;;5178895;28;20443;-51
2021/12/13 13:27:18;;;;;;;12.00;9.20;;;9.00;99.90;;;;;;5176330;28;20443;-51
2021/12/13 13:29:49;;;;;;;23.00;10.10;;;8.90;99.90;;;;;;5173175;28;20524;-50
2021/12/13 13:32:20;;;;;;;19.27;12.93;;;9.00;99.90;;;;;;5177445;28;21010;-51
2021/12/13 13:34:54;;;;;;;20.83;12.23;;;8.90;99.90;;;;;;5175039;28;20469;-49
2021/12/13 13:37:29;;;;;;;17.07;10.17;;;8.90;99.90;;;;;;5173534;28;20992;-50
2021/12/13 13:40:24;;;;;;;17.20;9.13;;;9.00;99.90;;;;;;5174318;28;20549;-51
2021/12/13 13:43:08;;;;;;;11.03;8.70;;;8.90;99.90;;;;;;5164432;28;21030;-51
2021/12/13 13:45:44;;;;;;;13.57;8.90;;;9.00;99.90;;;;;;5168063;28;20431;-51
2021/12/13 13:48:27;;;;;;;18.53;10.50;;;9.00;99.90;;;;;;5170911;28;20875;-50
2021/12/13 13:51:05;;;;;;;15.93;11.17;;;9.00;99.90;;;;;;5164015;28;20471;-52
2021/12/13 13:53:39;;;;;;;15.90;10.20;;;9.00;99.90;;;;;;5172014;28;20462;-50
2021/12/13 13:56:23;;;;;;;20.80;11.30;;;8.90;99.90;;;;;;5173281;28;20434;-52
2021/12/13 13:59:15;;;;;;;17.93;11.53;;;8.90;99.90;;;;;;5176420;28;20498;-52
2021/12/13 14:01:54;;;;;;;26.50;13.67;;;8.90;99.90;;;;;;5174590;28;20551;-50